• Join FlightAware (Why Join?)
  • Login
  • US Flag 
 
03:53PM EST


 

Airport Tracker/Info


-or-


 

Live Flight TrackerFlight Track Log ✈ SKW6446 ✈ 30-Apr-2013 ✈ KLAX - KSMX

Flight Track Log - Related Links

Times and Time Zones

All times are in EDT time to prevent confusion due to time zone crossing. See the SKW6446 flight status page for this flight to view local times or setup timezone preferences in your user account.

Time Position Orientation Groundspeed Altitude Reporting Facility
EDT Latitude Longitude Course Direction KTS MPH feet Rate Location/Type
07:45PM 33.9500 -118.4333 296° West 132 152 1,200  Level Southern California TRACON
07:46PM 33.9486 -118.4581 266° West 144 166 1,800 1,080 Climbing Los Angeles Center
07:47PM 33.9603 -118.5206 283° West 187 215 2,800 1,020 Climbing Los Angeles Center
07:48PM 33.9889 -118.5811 300° West 210 242 4,000 1,020 Climbing Los Angeles Center
07:49PM 34.0131 -118.6823 284° West  Level FlightAware Approximate
07:49PM 34.0239 -118.6450 303° West 214 246 5,000  Level Los Angeles Center
07:50PM 34.0341 -118.7785 285° West  Level FlightAware Approximate
07:50PM 34.0464 -118.7167 291° West 229 264 5,700  Level Los Angeles Center
07:51PM 34.0592 -118.8731 296° West  Level FlightAware Approximate
07:51PM 34.0597 -118.7850 283° West 220 253 6,600  Level Los Angeles Center
07:52PM 34.0753 -118.8558 285° West 218 251 7,700 1,020 Climbing Los Angeles Center
07:53PM 34.0928 -118.9406 284° West 218 251 8,800 660 Climbing Los Angeles Center
07:54PM 34.1100 -119.0131 286° West 226 260 9,300 600 Climbing Los Angeles Center
07:55PM 34.1408 -119.0939 295° West 224 258 10,200 780 Climbing Los Angeles Center
07:56PM 34.1778 -119.1578 305° West 231 266 11,000 720 Climbing Los Angeles Center
07:57PM 34.2117 -119.2217 303° West 228 262 11,700 480 Climbing Los Angeles Center
07:58PM 34.2469 -119.2883 303° West 240 276 12,000 120 Climbing Los Angeles Center
07:59PM 34.2925 -119.3722 303° West 249 287 12,000  Level Los Angeles Center
08:01PM 34.3294 -119.4439 302° West 251 289 12,000  Level Los Angeles Center
08:02PM 34.3686 -119.5142 304° West 253 291 12,000  Level Los Angeles Center
08:03PM 34.4069 -119.5839 304° West 251 289 12,000  Level Los Angeles Center
08:04PM 34.4439 -119.6561 302° West 252 290 12,000  Level Los Angeles Center
08:05PM 34.4928 -119.7389 306° West 251 289 12,000 -300 Level Los Angeles Center
08:06PM 34.5283 -119.8103 301° West 249 287 11,400 -780 Descending Los Angeles Center
08:07PM 34.5675 -119.8872 302° West 264 304 10,400 -1,020 Descending Los Angeles Center
08:07PM 34.5892 -119.9342 299° West 274 315 9,900 -900 Descending Los Angeles Center
08:08PM 34.6078 -119.9744 299° West 272 313 9,500 -900 Descending Los Angeles Center
08:09PM 34.6458 -120.0517 301° West 269 310 8,500 -1,260 Descending Los Angeles Center
08:10PM 34.6828 -120.1269 301° West 278 320 7,000 -1,440 Descending Los Angeles Center
08:11PM 34.7308 -120.2283 300° West 289 333 5,600 -1,200 Descending Los Angeles Center
08:12PM 34.7697 -120.3053 302° West 277 319 4,600 -900 Descending Los Angeles Center
08:13PM 34.8150 -120.3544 318° Northwest 225 259 3,800 -1,140 Descending Los Angeles Center
08:14PM 34.8481 -120.3953 315° West 182 209 2,300 -1,440 Descending Los Angeles Center
08:15PM 34.8778 -120.4286 317° Northwest 154 177 900 -1,380 Descending Los Angeles Center